createdAt,value
2018-11-06T00:01:37.108Z,90.39
2018-11-06T00:04:08.184Z,90.08
2018-11-06T00:06:39.529Z,89.24
2018-11-06T00:09:11.346Z,88.98
2018-11-06T00:11:42.559Z,89.04
2018-11-06T00:14:13.562Z,89.28
2018-11-06T00:16:45.071Z,89.04
2018-11-06T00:19:16.875Z,88.98
2018-11-06T00:21:47.789Z,88.98
2018-11-06T00:24:18.684Z,90.03
2018-11-06T00:26:49.869Z,89.45
2018-11-06T00:29:21.046Z,89.37
2018-11-06T00:31:51.959Z,89.13
2018-11-06T00:34:23.270Z,88.95
2018-11-06T00:36:54.421Z,89.00
2018-11-06T00:39:25.722Z,88.67
2018-11-06T00:41:56.652Z,88.57
2018-11-06T00:44:28.517Z,88.64
2018-11-06T00:47:00.242Z,89.27
2018-11-06T00:49:31.254Z,89.77
2018-11-06T00:52:02.242Z,89.71
2018-11-06T00:54:33.200Z,89.32
2018-11-06T00:57:04.407Z,89.60
2018-11-06T00:59:36.264Z,89.52
2018-11-06T01:02:07.446Z,89.25
2018-11-06T01:04:39.396Z,89.29
2018-11-06T01:07:11.155Z,89.95
2018-11-06T01:09:42.078Z,89.83
2018-11-06T01:12:13.407Z,89.81
2018-11-06T01:14:44.392Z,90.18
2018-11-06T01:17:15.277Z,89.85
2018-11-06T01:19:46.171Z,90.00
2018-11-06T01:22:17.046Z,89.91
2018-11-06T01:24:48.218Z,89.55
2018-11-06T01:27:20.289Z,89.28
2018-11-06T01:29:51.948Z,89.40
2018-11-06T01:32:22.884Z,90.56
2018-11-06T01:34:53.882Z,90.11
2018-11-06T01:37:25.167Z,89.81
2018-11-06T01:39:56.179Z,89.73
2018-11-06T01:42:27.502Z,89.88
2018-11-06T01:44:58.970Z,89.50
2018-11-06T01:47:29.852Z,89.12
2018-11-06T01:50:01.117Z,89.00
2018-11-06T01:52:31.995Z,89.67
2018-11-06T01:55:02.878Z,89.57
2018-11-06T01:57:33.804Z,89.78
2018-11-06T02:00:04.798Z,90.39
2018-11-06T02:02:36.137Z,90.28
2018-11-06T02:05:26.540Z,90.16
2018-11-06T02:07:57.534Z,90.49
2018-11-06T02:10:28.473Z,90.17
2018-11-06T02:12:59.694Z,89.38
2018-11-06T02:15:30.595Z,89.37
2018-11-06T02:18:01.483Z,89.21
2018-11-06T02:20:32.384Z,88.85
2018-11-06T02:23:03.628Z,89.18
2018-11-06T02:25:35.398Z,89.19
2018-11-06T02:28:06.301Z,89.16
2018-11-06T02:30:37.196Z,89.35
2018-11-06T02:33:08.191Z,89.51
2018-11-06T02:35:39.119Z,89.83
2018-11-06T02:38:10.006Z,89.89
2018-11-06T02:40:40.889Z,90.01
2018-11-06T02:43:12.093Z,89.77
2018-11-06T02:45:43.356Z,89.73
2018-11-06T02:48:14.545Z,89.07
2018-11-06T02:50:45.446Z,88.50
2018-11-06T02:53:16.384Z,88.27
2018-11-06T02:55:47.366Z,90.04
2018-11-06T02:58:19.358Z,90.44
2018-11-06T03:00:50.332Z,90.78
2018-11-06T03:03:21.569Z,90.51
2018-11-06T03:05:53.406Z,90.02
2018-11-06T03:08:24.320Z,90.10
2018-11-06T03:10:55.258Z,89.58
2018-11-06T03:13:26.647Z,88.92
2018-11-06T03:15:57.544Z,89.17
2018-11-06T03:18:28.425Z,89.93
2018-11-06T03:20:59.317Z,89.55
2018-11-06T03:23:30.196Z,89.54
2018-11-06T03:26:01.397Z,90.01
2018-11-06T03:28:32.257Z,90.19
2018-11-06T03:31:03.510Z,90.06
2018-11-06T03:33:34.370Z,90.13
2018-11-06T03:36:05.333Z,90.19
2018-11-06T03:38:36.214Z,90.38
2018-11-06T03:41:07.214Z,90.60
2018-11-06T03:43:38.110Z,90.81
2018-11-06T03:46:09.062Z,91.10
2018-11-06T03:48:39.965Z,91.81
2018-11-06T03:51:10.826Z,91.36
2018-11-06T03:53:41.674Z,90.57
2018-11-06T03:56:13.111Z,90.19
2018-11-06T03:58:44.021Z,90.45
2018-11-06T04:01:15.194Z,90.65
2018-11-06T04:03:46.118Z,90.53
2018-11-06T04:06:17.355Z,90.86
2018-11-06T04:08:48.553Z,90.56
2018-11-06T04:11:19.456Z,90.85
2018-11-06T04:13:50.449Z,90.87
2018-11-06T04:16:21.351Z,91.83
2018-11-06T04:18:52.250Z,91.74
2018-11-06T04:21:35.426Z,91.27
2018-11-06T04:24:07.859Z,90.99
2018-11-06T04:26:39.317Z,90.74
2018-11-06T04:29:10.760Z,91.01
2018-11-06T04:31:41.686Z,90.96
2018-11-06T04:34:12.598Z,90.72
2018-11-06T04:36:43.577Z,90.67
2018-11-06T04:39:14.465Z,90.78
2018-11-06T04:41:45.336Z,90.82
2018-11-06T04:44:16.198Z,91.53
2018-11-06T04:46:47.105Z,91.58
2018-11-06T04:49:18.796Z,91.45
2018-11-06T04:51:50.028Z,91.13
2018-11-06T04:54:20.911Z,90.94
2018-11-06T04:56:51.939Z,91.60
2018-11-06T04:59:22.797Z,91.06
2018-11-06T05:01:53.789Z,91.05
2018-11-06T05:04:24.642Z,90.79
2018-11-06T05:06:55.617Z,90.61
2018-11-06T05:09:26.437Z,90.81
2018-11-06T05:11:57.690Z,91.62
2018-11-06T05:14:28.621Z,91.41
2018-11-06T05:16:59.530Z,91.68
2018-11-06T05:19:30.419Z,91.54
2018-11-06T05:22:01.308Z,91.48
2018-11-06T05:24:32.171Z,91.94
2018-11-06T05:27:03.732Z,92.02
2018-11-06T05:29:34.912Z,92.21
2018-11-06T05:32:06.251Z,92.53
2018-11-06T05:34:37.187Z,92.65
2018-11-06T05:37:08.201Z,92.58
2018-11-06T05:40:16.871Z,92.22
2018-11-06T05:42:48.185Z,92.01
2018-11-06T05:45:19.321Z,92.52
2018-11-06T05:47:50.185Z,92.50
2018-11-06T05:50:21.096Z,92.10
2018-11-06T05:52:52.270Z,91.89
2018-11-06T05:55:59.478Z,91.54
2018-11-06T05:58:30.671Z,91.58
2018-11-06T06:01:01.565Z,91.49
2018-11-06T06:03:32.902Z,91.39
2018-11-06T06:06:04.116Z,91.29
2018-11-06T06:08:35.645Z,91.24
2018-11-06T06:11:06.978Z,91.13
2018-11-06T06:13:37.850Z,91.23
2018-11-06T06:16:09.074Z,91.43
2018-11-06T06:18:39.937Z,91.48
2018-11-06T06:21:10.865Z,91.12
2018-11-06T06:23:41.798Z,91.09
2018-11-06T06:26:12.681Z,91.24
2018-11-06T06:28:43.737Z,91.45
2018-11-06T06:31:14.626Z,92.26
2018-11-06T06:33:45.499Z,92.21
2018-11-06T06:36:16.412Z,92.30
2018-11-06T06:38:47.389Z,92.57
2018-11-06T06:41:18.180Z,92.70
2018-11-06T06:43:49.045Z,92.64
2018-11-06T06:46:20.401Z,92.55
2018-11-06T06:48:51.256Z,92.37
2018-11-06T06:51:22.168Z,92.43
2018-11-06T06:53:53.239Z,92.35
2018-11-06T06:56:24.093Z,92.21
2018-11-06T06:58:55.901Z,91.94
2018-11-06T07:01:26.794Z,91.41
2018-11-06T07:03:58.001Z,91.13
2018-11-06T07:06:28.875Z,91.05
2018-11-06T07:09:00.153Z,89.83
2018-11-06T07:11:31.056Z,88.79
2018-11-06T07:14:02.018Z,88.52
2018-11-06T07:16:33.018Z,86.74
2018-11-06T07:19:03.941Z,85.52
2018-11-06T07:21:34.842Z,85.14
2018-11-06T07:24:05.875Z,85.19
2018-11-06T07:26:36.872Z,84.24
2018-11-06T07:29:07.910Z,83.67
2018-11-06T07:31:38.867Z,81.90
2018-11-06T07:34:09.825Z,80.92
2018-11-06T07:36:40.736Z,81.11
2018-11-06T07:39:12.998Z,79.31
2018-11-06T07:41:43.906Z,78.33
2018-11-06T07:44:14.798Z,76.06
2018-11-06T07:46:45.752Z,74.75
2018-11-06T07:49:16.656Z,75.65
2018-11-06T07:51:47.551Z,73.35
2018-11-06T07:54:18.506Z,72.74
2018-11-06T07:56:49.427Z,71.31
2018-11-06T07:59:20.810Z,71.91
2018-11-06T08:01:51.700Z,71.31
2018-11-06T08:04:22.710Z,69.37
2018-11-06T08:06:53.704Z,67.82
2018-11-06T08:09:24.799Z,67.45
2018-11-06T08:11:55.625Z,66.49
2018-11-06T08:14:26.603Z,64.27
2018-11-06T08:16:57.491Z,62.93
2018-11-06T08:19:28.671Z,63.27
2018-11-06T08:21:59.558Z,61.43
2018-11-06T08:24:30.823Z,60.45
2018-11-06T08:27:01.682Z,61.53
2018-11-06T08:29:32.894Z,59.97
2018-11-06T08:32:04.106Z,59.48
2018-11-06T08:34:34.716Z,60.51
2018-11-06T08:37:05.697Z,59.96
2018-11-06T08:39:36.682Z,61.65
2018-11-06T08:42:07.935Z,61.22
2018-11-06T08:44:38.838Z,60.67
2018-11-06T08:47:09.778Z,62.28
2018-11-06T08:49:40.722Z,62.53
2018-11-06T08:52:11.589Z,62.49
2018-11-06T08:54:42.558Z,62.28
2018-11-06T08:57:13.703Z,61.33
2018-11-06T08:59:44.601Z,62.16
2018-11-06T09:02:15.556Z,62.54
2018-11-06T09:04:46.823Z,64.97
2018-11-06T09:07:18.118Z,65.77
2018-11-06T09:09:49.278Z,64.54
2018-11-06T09:12:20.483Z,64.71
2018-11-06T09:14:51.487Z,64.83
2018-11-06T09:17:22.461Z,65.33
2018-11-06T09:19:53.800Z,66.20
2018-11-06T09:22:24.695Z,65.04
2018-11-06T09:24:55.579Z,64.88
2018-11-06T09:27:26.475Z,64.77
2018-11-06T09:29:57.406Z,64.62
2018-11-06T09:32:28.303Z,64.42
2018-11-06T09:34:59.564Z,63.82
2018-11-06T09:37:30.420Z,63.13
2018-11-06T09:40:01.648Z,60.97
2018-11-06T09:42:32.580Z,59.25
2018-11-06T09:45:03.695Z,57.68
2018-11-06T09:47:34.534Z,57.17
2018-11-06T09:50:06.550Z,55.19
2018-11-06T09:52:37.486Z,55.48
2018-11-06T09:55:08.556Z,54.64
2018-11-06T09:57:39.429Z,52.83
2018-11-06T10:00:18.634Z,51.48
2018-11-06T10:02:49.392Z,53.00
2018-11-06T10:05:20.289Z,51.42
2018-11-06T10:07:51.277Z,53.20
2018-11-06T10:10:22.071Z,52.48
2018-11-06T10:12:52.953Z,52.01
2018-11-06T10:15:23.841Z,52.78
2018-11-06T10:17:54.717Z,56.39
2018-11-06T10:20:25.927Z,57.19
2018-11-06T10:22:56.800Z,56.22
2018-11-06T10:25:28.044Z,56.91
2018-11-06T10:27:58.978Z,56.22
2018-11-06T10:30:29.907Z,57.04
2018-11-06T10:33:00.805Z,57.85
2018-11-06T10:35:31.694Z,56.64
2018-11-06T10:38:02.920Z,57.38
2018-11-06T10:40:34.434Z,58.14
2018-11-06T10:43:05.315Z,58.14
2018-11-06T10:45:36.260Z,59.85
2018-11-06T10:48:07.532Z,58.75
2018-11-06T10:50:38.494Z,58.97
2018-11-06T10:53:09.371Z,58.00
2018-11-06T10:55:40.240Z,56.45
2018-11-06T10:58:11.501Z,57.89
2018-11-06T11:00:59.873Z,58.08
2018-11-06T11:03:39.571Z,56.28
2018-11-06T11:06:10.617Z,56.50
2018-11-06T11:08:41.461Z,55.55
2018-11-06T11:11:12.773Z,55.72
2018-11-06T11:13:44.090Z,55.40
2018-11-06T11:16:15.057Z,55.61
2018-11-06T11:18:46.125Z,54.36
2018-11-06T11:21:17.428Z,55.09
2018-11-06T11:23:49.681Z,55.69
2018-11-06T11:26:20.618Z,55.79
2018-11-06T11:28:51.631Z,56.08
2018-11-06T11:31:22.660Z,57.41
2018-11-06T11:33:53.613Z,57.21
2018-11-06T11:36:24.676Z,57.95
2018-11-06T11:38:55.587Z,58.72
2018-11-06T11:41:26.575Z,60.31
2018-11-06T11:43:58.468Z,59.41
2018-11-06T11:46:29.812Z,60.41
2018-11-06T11:49:00.761Z,59.67
2018-11-06T11:51:31.821Z,59.73
2018-11-06T11:54:03.638Z,60.48
2018-11-06T11:56:34.992Z,60.86
2018-11-06T11:59:06.248Z,61.28
2018-11-06T12:01:37.268Z,61.98
2018-11-06T12:04:08.956Z,60.96
2018-11-06T12:06:40.020Z,59.39
2018-11-06T12:09:11.813Z,59.25
2018-11-06T12:11:43.337Z,56.27
2018-11-06T12:14:14.305Z,55.24
2018-11-06T12:16:45.250Z,55.20
2018-11-06T12:19:16.226Z,55.27
2018-11-06T12:21:47.529Z,56.45
2018-11-06T12:24:18.701Z,56.24
2018-11-06T12:26:49.562Z,57.21
2018-11-06T12:29:20.641Z,56.43
2018-11-06T12:31:51.579Z,55.94
2018-11-06T12:34:22.522Z,55.59
2018-11-06T12:36:53.515Z,57.43
2018-11-06T12:39:24.741Z,58.34
2018-11-06T12:41:56.630Z,59.67
2018-11-06T12:44:27.573Z,60.31
2018-11-06T12:46:58.611Z,61.52
2018-11-06T12:49:29.626Z,61.62
2018-11-06T12:52:00.613Z,61.25
2018-11-06T12:54:31.888Z,61.42
2018-11-06T12:57:02.960Z,62.03
2018-11-06T12:59:33.937Z,62.36
2018-11-06T13:02:04.849Z,62.56
2018-11-06T13:04:36.130Z,63.28
2018-11-06T13:07:07.329Z,62.87
2018-11-06T13:09:38.370Z,62.65
2018-11-06T13:12:09.562Z,63.65
2018-11-06T13:14:40.850Z,63.61
2018-11-06T13:17:11.847Z,63.41
2018-11-06T13:19:42.912Z,63.55
2018-11-06T13:22:14.173Z,62.82
2018-11-06T13:24:45.229Z,63.02
2018-11-06T13:27:16.960Z,62.17
2018-11-06T13:29:47.906Z,62.90
2018-11-06T13:32:18.927Z,62.75
2018-11-06T13:34:50.213Z,63.29
2018-11-06T13:37:21.300Z,62.52
2018-11-06T13:39:52.358Z,63.50
2018-11-06T13:42:23.640Z,62.47
2018-11-06T13:44:54.863Z,63.28
2018-11-06T13:47:25.831Z,63.90
2018-11-06T13:49:56.810Z,63.31
2018-11-06T13:52:27.797Z,63.02
2018-11-06T13:54:59.208Z,64.49
2018-11-06T13:57:30.144Z,64.19
2018-11-06T14:00:01.130Z,64.57
2018-11-06T14:02:32.150Z,64.42
2018-11-06T14:05:03.450Z,64.92
2018-11-06T14:07:34.700Z,64.92
2018-11-06T14:10:05.784Z,64.86
2018-11-06T14:12:37.762Z,65.41
2018-11-06T14:15:08.906Z,64.54
2018-11-06T14:17:40.341Z,64.18
2018-11-06T14:20:13.648Z,64.06
2018-11-06T14:22:45.085Z,64.14
2018-11-06T14:25:16.134Z,63.90
2018-11-06T14:27:47.087Z,63.67
2018-11-06T14:30:19.787Z,63.46
2018-11-06T14:32:51.143Z,63.99
2018-11-06T14:35:22.073Z,64.28
2018-11-06T14:37:53.114Z,64.61
2018-11-06T14:40:24.382Z,65.41
2018-11-06T14:42:55.528Z,65.10
2018-11-06T14:45:26.386Z,65.36
2018-11-06T14:47:57.526Z,66.20
2018-11-06T14:50:28.402Z,66.59
2018-11-06T14:52:59.496Z,66.45
2018-11-06T14:55:30.779Z,66.94
2018-11-06T14:58:01.821Z,67.13
2018-11-06T15:00:32.786Z,67.26
2018-11-06T15:03:03.929Z,67.46
2018-11-06T15:05:35.039Z,67.75
2018-11-06T15:08:06.181Z,67.78
2018-11-06T15:10:37.207Z,68.63
2018-11-06T15:13:08.350Z,68.65
2018-11-06T15:15:39.396Z,69.35
2018-11-06T15:18:10.478Z,69.58
2018-11-06T15:20:41.771Z,69.52
2018-11-06T15:23:12.642Z,69.86
2018-11-06T15:25:43.675Z,70.14
2018-11-06T15:28:15.033Z,70.51
2018-11-06T15:30:46.007Z,70.68
2018-11-06T15:33:17.365Z,70.49
2018-11-06T15:35:48.977Z,70.82
2018-11-06T15:38:20.014Z,70.37
2018-11-06T15:40:51.157Z,70.17
2018-11-06T15:43:22.786Z,70.49
2018-11-06T15:45:53.764Z,70.78
2018-11-06T15:48:24.922Z,70.78
2018-11-06T15:50:55.915Z,71.03
2018-11-06T15:53:26.999Z,71.63
2018-11-06T15:55:58.149Z,71.50
2018-11-06T15:58:29.163Z,71.61
2018-11-06T16:01:00.314Z,71.88
2018-11-06T16:03:31.407Z,72.19
2018-11-06T16:06:02.675Z,72.12
2018-11-06T16:08:33.783Z,71.55
2018-11-06T16:11:04.771Z,71.26
2018-11-06T16:13:36.167Z,71.40
2018-11-06T16:16:07.656Z,71.01
2018-11-06T16:18:38.638Z,70.51
2018-11-06T16:21:09.764Z,70.70
2018-11-06T16:23:40.769Z,70.38
2018-11-06T16:26:11.824Z,70.10
2018-11-06T16:28:42.825Z,70.07
2018-11-06T16:31:13.861Z,69.74
2018-11-06T16:33:44.837Z,70.06
2018-11-06T16:36:15.821Z,70.00
2018-11-06T16:38:47.717Z,70.52
2018-11-06T16:41:18.706Z,69.78
2018-11-06T16:43:50.407Z,69.89
2018-11-06T16:46:21.538Z,69.10
2018-11-06T16:48:52.528Z,68.79
2018-11-06T16:51:23.600Z,68.18
2018-11-06T16:53:54.581Z,68.08
2018-11-06T16:56:25.589Z,67.71
2018-11-06T16:58:56.575Z,66.80
2018-11-06T17:01:27.549Z,66.89
2018-11-06T17:03:58.515Z,66.99
2018-11-06T17:06:48.383Z,67.58
2018-11-06T17:09:20.399Z,67.87
2018-11-06T17:11:51.439Z,68.37
2018-11-06T17:14:22.442Z,67.99
2018-11-06T17:16:53.521Z,67.70
2018-11-06T17:19:24.635Z,67.81
2018-11-06T17:21:55.714Z,68.04
2018-11-06T17:24:26.911Z,67.40
2018-11-06T17:26:57.896Z,67.58
2018-11-06T17:29:28.864Z,68.47
2018-11-06T17:31:59.942Z,68.35
2018-11-06T17:34:30.907Z,68.90
2018-11-06T17:37:01.934Z,68.80
2018-11-06T17:39:32.949Z,69.28
2018-11-06T17:42:04.346Z,69.53
2018-11-06T17:44:35.305Z,69.88
2018-11-06T17:47:06.502Z,70.65
2018-11-06T17:49:37.573Z,71.49
2018-11-06T17:52:08.824Z,71.52
2018-11-06T17:54:40.230Z,71.59
2018-11-06T17:57:11.280Z,71.91
2018-11-06T17:59:42.591Z,72.56
2018-11-06T18:02:13.751Z,73.01
2018-11-06T18:04:44.758Z,73.33
2018-11-06T18:07:16.076Z,73.81
2018-11-06T18:09:47.168Z,74.40
2018-11-06T18:12:18.597Z,75.24
2018-11-06T18:14:49.712Z,75.54
2018-11-06T18:17:21.437Z,76.29
2018-11-06T18:19:52.453Z,76.62
2018-11-06T18:22:23.544Z,76.62
2018-11-06T18:24:54.516Z,76.33
2018-11-06T18:27:25.580Z,76.53
2018-11-06T18:29:56.642Z,78.58
2018-11-06T18:32:27.797Z,78.64
2018-11-06T18:34:58.732Z,78.55
2018-11-06T18:37:29.836Z,78.86
2018-11-06T18:40:00.850Z,79.21
2018-11-06T18:42:32.102Z,79.26
2018-11-06T18:45:03.273Z,79.15
2018-11-06T18:47:34.421Z,78.58
2018-11-06T18:50:06.045Z,78.31
2018-11-06T18:52:37.180Z,78.29
2018-11-06T18:55:08.659Z,78.25
2018-11-06T18:57:39.717Z,78.13
2018-11-06T19:00:13.971Z,78.39
2018-11-06T19:02:46.691Z,78.40
2018-11-06T19:05:18.291Z,79.65
2018-11-06T19:07:49.601Z,80.10
2018-11-06T19:10:20.777Z,79.84
2018-11-06T19:12:52.085Z,80.44
2018-11-06T19:15:24.192Z,79.53
2018-11-06T19:17:55.188Z,79.74
2018-11-06T19:20:26.097Z,79.57
2018-11-06T19:22:57.037Z,80.02
2018-11-06T19:25:28.354Z,80.66
2018-11-06T19:28:00.015Z,81.27
2018-11-06T19:30:31.260Z,82.67
2018-11-06T19:33:02.086Z,82.13
2018-11-06T19:35:33.027Z,82.19
2018-11-06T19:38:04.672Z,82.24
2018-11-06T19:40:35.925Z,82.10
2018-11-06T19:43:06.913Z,81.70
2018-11-06T19:45:37.805Z,81.40
2018-11-06T19:48:09.519Z,81.97
2018-11-06T19:50:40.416Z,82.05
2018-11-06T19:53:12.170Z,82.10
2018-11-06T19:55:44.167Z,81.85
2018-11-06T19:58:15.467Z,82.45
2018-11-06T20:00:46.798Z,81.77
2018-11-06T20:03:17.572Z,79.09
2018-11-06T20:05:48.506Z,80.62
2018-11-06T20:08:19.390Z,80.12
2018-11-06T20:10:50.280Z,80.57
2018-11-06T20:13:21.271Z,85.34
2018-11-06T20:15:52.252Z,84.79
2018-11-06T20:18:23.207Z,84.90
2018-11-06T20:20:54.114Z,85.84
2018-11-06T20:23:25.657Z,85.51
2018-11-06T20:25:56.961Z,85.70
2018-11-06T20:28:27.888Z,85.17
2018-11-06T20:30:58.826Z,84.57
2018-11-06T20:33:29.946Z,84.15
2018-11-06T20:36:03.175Z,84.46
2018-11-06T20:38:34.151Z,83.92
2018-11-06T20:41:05.397Z,84.01
2018-11-06T20:43:36.336Z,83.24
2018-11-06T20:46:07.546Z,83.50
2018-11-06T20:48:38.705Z,83.12
2018-11-06T20:51:09.601Z,83.98
2018-11-06T20:53:40.699Z,83.94
2018-11-06T20:56:11.533Z,84.45
2018-11-06T20:58:42.435Z,84.24
2018-11-06T21:01:13.496Z,84.16
2018-11-06T21:03:44.284Z,83.26
2018-11-06T21:06:16.205Z,82.64
2018-11-06T21:08:47.784Z,83.51
2018-11-06T21:11:18.817Z,83.63
2018-11-06T21:13:49.785Z,84.36
2018-11-06T21:16:20.915Z,84.87
2018-11-06T21:18:52.173Z,84.08
2018-11-06T21:21:23.126Z,83.96
2018-11-06T21:23:54.008Z,83.86
2018-11-06T21:26:25.016Z,84.43
2018-11-06T21:28:56.233Z,85.14
2018-11-06T21:31:27.318Z,85.20
2018-11-06T21:33:58.323Z,85.56
2018-11-06T21:36:29.190Z,85.16
2018-11-06T21:39:00.129Z,86.43
2018-11-06T21:41:30.998Z,86.36
2018-11-06T21:44:01.952Z,86.83
2018-11-06T21:46:33.169Z,87.29
2018-11-06T21:49:04.428Z,85.62
2018-11-06T21:51:35.435Z,86.28
2018-11-06T21:54:07.525Z,86.30
2018-11-06T21:56:38.445Z,85.46
2018-11-06T21:59:09.409Z,85.11
2018-11-06T22:01:40.326Z,84.54
2018-11-06T22:04:11.534Z,83.77
2018-11-06T22:06:42.423Z,82.93
2018-11-06T22:09:13.343Z,82.14
2018-11-06T22:11:44.299Z,81.86
2018-11-06T22:14:15.169Z,82.02
2018-11-06T22:16:46.419Z,81.86
2018-11-06T22:19:17.334Z,81.59
2018-11-06T22:21:48.227Z,82.17
2018-11-06T22:24:19.197Z,81.74
2018-11-06T22:26:50.476Z,80.95
2018-11-06T22:29:21.451Z,81.54
2018-11-06T22:31:52.409Z,84.32
2018-11-06T22:34:23.530Z,84.93
2018-11-06T22:36:54.560Z,83.42
2018-11-06T22:39:25.536Z,82.64
2018-11-06T22:41:56.431Z,82.39
2018-11-06T22:44:27.381Z,82.86
2018-11-06T22:46:58.278Z,83.26
2018-11-06T22:49:29.157Z,85.44
2018-11-06T22:52:00.096Z,84.69
2018-11-06T22:54:31.350Z,83.05
2018-11-06T22:57:02.246Z,84.77
2018-11-06T22:59:33.217Z,86.41
2018-11-06T23:02:04.749Z,84.27
2018-11-06T23:04:36.069Z,82.76
2018-11-06T23:07:07.642Z,83.25
2018-11-06T23:09:38.466Z,83.20
2018-11-06T23:12:09.936Z,83.35
2018-11-06T23:14:40.802Z,84.08
2018-11-06T23:17:11.672Z,84.11
2018-11-06T23:19:42.862Z,84.01
2018-11-06T23:22:13.743Z,84.27
2018-11-06T23:24:44.681Z,85.07
2018-11-06T23:27:16.564Z,85.48
2018-11-06T23:29:47.434Z,85.71
2018-11-06T23:32:18.392Z,84.51
2018-11-06T23:34:49.291Z,85.33
2018-11-06T23:37:20.133Z,84.72
2018-11-06T23:39:51.020Z,84.35
2018-11-06T23:42:21.872Z,83.73
2018-11-06T23:44:53.094Z,83.65
2018-11-06T23:47:23.966Z,84.40
2018-11-06T23:49:54.831Z,84.14
2018-11-06T23:52:25.682Z,84.86
2018-11-06T23:54:56.551Z,85.37
2018-11-06T23:57:28.286Z,85.21
2018-11-06T23:59:59.866Z,85.69
